Surface weather observations from New York State from the past hour:

KALB 040351Z 26006KT 10SM FEW065 FEW110 FEW230 18/14 A2969 RMK AO2 SLP053
 T01830144=
KART 040356Z AUTO 00000KT M1/4SM FG VV002 12/11 A2970 RMK AO2 SLP055 T01170111=
KBGM 040353Z AUTO 30005KT 10SM FEW110 17/16 A2977 RMK AO2 RAE0256 SLP075 P0000
 T01720156=
KBUF 040354Z 21006KT 10SM CLR 14/13 A2977 RMK AO2 SLP082 T01390128 $=
KDKK 040353Z AUTO 23003KT 10SM CLR 17/14 A2979 RMK AO2 SLP085 T01720139 $=
KDSV 040354Z AUTO 00000KT 10SM CLR 17/16 A2978 RMK AO2 SLP088 T01670156=
KELM 040353Z AUTO 00000KT 5SM BR CLR 17/17 A2976 RMK AO2 SLP073 T01720167=
KELZ 040356Z AUTO 27008KT 10SM CLR 17/14 A2984 RMK AO2 SLP096 T01720144=
KFOK 040353Z AUTO 23004KT 10SM CLR 17/16 A2971 RMK AO2 SLP061 T01670161=
KFRG 040353Z AUTO 25003KT 10SM CLR 20/18 A2971 RMK AO2 SLP060 T02000178=
KFZY 040354Z AUTO 30003KT 8SM CLR 15/13 A2972 RMK AO2 SLP064 T01500133=
KGFL 040353Z AUTO 00000KT 1SM BR CLR 13/13 A2967 RMK AO2 SLP049 T01330128=
KGTB 040356Z AUTO 00000KT 2 3/4SM BR CLR 15/15 A2970 RMK AO2 VIS 2 1/2V4 VIS
 7/8 RWY03 VIS 1 3/4 RWY15 VIS 7/8 RWY33 SLP057 T01470145=
KHPN 040356Z 25003KT 10SM FEW070 17/17 A2972 RMK AO2 SLP059 T01720167=
KHTO 040355Z AUTO 00000KT 10SM SCT110 17/17 A2969 RMK AO2 T01740167=
KHWV 040356Z AUTO 00000KT 10SM CLR 18/16 A2970 RMK AO2 SLP056 T01830161=
KIAG 040353Z AUTO 16004KT 10SM CLR 15/13 A2976 RMK AO2 SLP078 T01500133=
KISP 040356Z 21009KT 10SM FEW090 SCT250 18/18 A2970 RMK SLP057 LAST T01830178=
KITH 040356Z AUTO 00000KT 6SM BR SCT047 BKN060 17/17 A2977 RMK AO2 RAE07 SLP074
 P0000 T01670167 402390139=
KJFK 040351Z 20004KT 10SM SCT080 BKN250 18/18 A2973 RMK AO2 SLP067 T01780178=
KJHW 040356Z AUTO 24007KT 10SM CLR 16/14 A2984 RMK AO2 SLP102 T01610139=
KLGA 040351Z 22003KT 10SM BKN065 BKN080 22/18 A2971 RMK AO2 SLP060 T02170183=
KMGJ 040354Z AUTO 17003KT 10SM CLR 16/16 A2972 RMK AO2 SLP062 T01610161=
KMSS 040353Z AUTO 00000KT 1 1/4SM BR FEW001 11/10 A2968 RMK AO2 SLP053
 T01060100=
KMSV 040356Z AUTO 00000KT 9SM SCT120 16/16 A2978 RMK AO2 SLP081 P0001 T01560156=
KMTP 040354Z AUTO 29003KT 18/17 A2970 RMK AO1 SLP056 P0003 T01780167=
KNYC 040351Z AUTO 10SM BKN065 OVC080 20/19 A2975 RMK AO2 SLP064 T02000189 $=
KOGS 040355Z AUTO 00000KT 1/4SM FG OVC003 13/13 A2967 RMK AO2=
KOLE 040355Z AUTO 00000KT 10SM CLR 16/15 A2984 RMK AO2=
KPBG 040353Z AUTO 01003KT 3SM BR FEW100 12/12 A2966 RMK AO2 SLP044 T01220122=
KPEO 040353Z AUTO 22004KT 10SM FEW055 18/16 A2976 RMK AO2 SLP073 T01780161=
KPOU 040353Z AUTO 00000KT 10SM CLR 18/17 A2970 RMK AO2 SLP052 T01830172=
KRME 040353Z AUTO 00000KT 9SM FEW050 14/13 A2973 RMK AO2 SLP064 T01440133=
KROC 040354Z 28006KT 10SM FEW060 BKN180 18/17 A2975 RMK AO2 SLP075 T01780167 $=
KSLK 040351Z AUTO VRB04KT 10SM -RA FEW007 BKN047 OVC075 14/12 A2969 RMK AO2
 RAB11 SLP054 P0031 T01390122=
KSWF 040345Z 30007KT 10SM SCT100 18/18 A2973=
KSYR 040354Z 26004KT 10SM FEW050 FEW180 17/14 A2972 RMK AO2 SLP059 T01720144=

Return to: Albany Weather Page

Return to: Department of Atmospheric and Environmental Sciences Homepage


Comments to daesweb@albany.edu